| time (UTC) | temp F | wind direction | speed knots | gust knots | rain 1hr in | rain 24hr in | rain mn in | humidity % | barometer mb |
| 20260510180010 | 73 | 291 | 3.5 | 6.1 | 0.00 | 0.00 | 0.00 | 64 | 1013.6 |
| 20260510175504 | 73 | 273 | 4.3 | 7.0 | 0.00 | 0.00 | 0.00 | 63 | 1013.6 |
| 20260510175001 | 73 | 327 | 3.5 | 5.2 | 0.00 | 0.00 | 0.00 | 63 | 1013.6 |
| 20260510174459 | 73 | 303 | 4.3 | 7.0 | 0.00 | 0.00 | 0.00 | 64 | 1013.7 |
| 20260510173955 | 73 | 288 | 5.2 | 7.0 | 0.00 | 0.00 | 0.00 | 64 | 1013.8 |
| 20260510173451 | 73 | 258 | 4.3 | 6.1 | 0.00 | 0.00 | 0.00 | 64 | 1013.6 |
| 20260510172948 | 72 | 324 | 3.5 | 4.3 | 0.00 | 0.00 | 0.00 | 63 | 1013.5 |
| 20260510172443 | 71 | 285 | 0.9 | 1.7 | 0.00 | 0.00 | 0.00 | 66 | 1013.6 |
| 20260510171940 | 72 | 239 | 2.6 | 4.3 | 0.00 | 0.00 | 0.00 | 65 | 1013.5 |
| 20260510171437 | 73 | 276 | 0.9 | 0.9 | 0.00 | 0.00 | 0.00 | 67 | 1013.4 |
| 20260510170934 | 72 | 181 | 2.6 | 4.3 | 0.00 | 0.00 | 0.00 | 66 | 1013.5 |
| 20260510170431 | 71 | 324 | 4.3 | 5.2 | 0.00 | 0.00 | 0.00 | 67 | 1013.5 |
| 20260510165926 | 71 | 244 | 1.7 | 2.6 | 0.00 | 0.00 | 0.00 | 69 | 1013.5 |
| 20260510165422 | 71 | 264 | 1.7 | 2.6 | 0.00 | 0.00 | 0.00 | 69 | 1013.5 |
| 20260510164920 | 71 | 296 | 2.6 | 5.2 | 0.00 | 0.00 | 0.00 | 68 | 1013.7 |
| 20260510164417 | 71 | 239 | 3.5 | 4.3 | 0.00 | 0.00 | 0.00 | 70 | 1013.9 |
| 20260510163917 | 70 | 20 | 0.9 | 0.9 | 0.00 | 0.00 | 0.00 | 70 | 1013.6 |
| 20260510163413 | 69 | 212 | 0.9 | 1.7 | 0.00 | 0.00 | 0.00 | 73 | 1013.6 |
| 20260510162907 | 69 | 198 | 0.0 | 0.0 | 0.00 | 0.00 | 0.00 | 72 | 1013.9 |
| 20260510162406 | 69 | 217 | 2.6 | 2.6 | 0.00 | 0.00 | 0.00 | 73 | 1013.7 |
| 20260510161901 | 68 | 205 | 0.9 | 1.7 | 0.00 | 0.00 | 0.00 | 75 | 1013.9 |
| 20260510161357 | 68 | 280 | 1.7 | 1.7 | 0.00 | 0.00 | 0.00 | 74 | 1013.7 |
| 20260510160853 | 67 | 272 | 0.9 | 1.7 | 0.00 | 0.00 | 0.00 | 76 | 1013.9 |
| 20260510160350 | 67 | 304 | 1.7 | 1.7 | 0.00 | 0.00 | 0.00 | 78 | 1014.1 |
| 20260510155844 | 66 | 218 | 0.9 | 0.9 | 0.00 | 0.00 | 0.00 | 78 | 1013.9 |
| 20260510155342 | 66 | 238 | 0.0 | 0.0 | 0.00 | 0.00 | 0.00 | 78 | 1014.2 |
| 20260510154837 | 65 | 243 | 0.9 | 0.9 | 0.00 | 0.00 | 0.00 | 78 | 1014.2 |
| 20260510154333 | 65 | 234 | 2.6 | 4.3 | 0.00 | 0.00 | 0.00 | 78 | 1014.3 |
| 20260510153828 | 65 | 201 | 2.6 | 4.3 | 0.00 | 0.00 | 0.00 | 79 | 1014.5 |
| 20260510153324 | 64 | 246 | 0.9 | 0.9 | 0.00 | 0.00 | 0.00 | 80 | 1014.3 |
| 20260510152821 | 64 | 256 | 1.7 | 1.7 | 0.00 | 0.00 | 0.00 | 80 | 1014.5 |
| 20260510152318 | 63 | 203 | 0.9 | 1.7 | 0.00 | 0.00 | 0.00 | 82 | 1014.4 |
| 20260510151814 | 63 | 251 | 0.0 | 0.9 | 0.00 | 0.00 | 0.00 | 83 | 1014.6 |
| 20260510151312 | 63 | 239 | 0.0 | 0.0 | 0.00 | 0.00 | 0.00 | 84 | 1014.3 |
| 20260510150808 | 61 | 231 | 0.9 | 0.9 | 0.00 | 0.00 | 0.00 | 84 | 1014.6 |
| 20260510150304 | 62 | 257 | 1.7 | 1.7 | 0.00 | 0.00 | 0.00 | 84 | 1014.4 |
| 20260510145800 | 61 | 231 | 0.0 | 0.0 | 0.00 | 0.00 | 0.00 | 86 | 1014.5 |
| 20260510145257 | 59 | 236 | 0.0 | 0.0 | 0.00 | 0.00 | 0.00 | 88 | 1014.3 |
| 20260510144753 | 59 | 292 | 2.6 | 2.6 | 0.00 | 0.00 | 0.00 | 88 | 1014.3 |
| 20260510144250 | 60 | 257 | 0.9 | 1.7 | 0.00 | 0.00 | 0.00 | 87 | 1014.5 |
| 20260510143749 | 59 | 270 | 0.0 | 0.0 | 0.00 | 0.00 | 0.00 | 87 | 1014.5 |
| 20260510143246 | 59 | 216 | 0.0 | 0.9 | 0.00 | 0.00 | 0.00 | 88 | 1014.5 |
| 20260510142743 | 58 | 254 | 0.9 | 0.9 | 0.00 | 0.00 | 0.00 | 90 | 1014.4 |
| 20260510142240 | 57 | 243 | 0.0 | 0.0 | 0.00 | 0.00 | 0.00 | 92 | 1014.4 |
| 20260510141737 | 57 | 271 | 0.9 | 0.9 | 0.00 | 0.00 | 0.00 | 92 | 1014.3 |
| 20260510141235 | 57 | 259 | 0.9 | 1.7 | 0.00 | 0.00 | 0.00 | 93 | 1014.3 |
| 20260510140731 | 57 | 271 | 1.7 | 1.7 | 0.00 | 0.00 | 0.00 | 93 | 1014.2 |
| 20260510140232 | 57 | 256 | 2.6 | 2.6 | 0.00 | 0.00 | 0.00 | 94 | 1014.2 |
| 20260510135726 | 56 | 223 | 0.0 | 0.0 | 0.00 | 0.00 | 0.00 | 96 | 1014.2 |
| 20260510135222 | 55 | 222 | 1.7 | 1.7 | 0.00 | 0.00 | 0.00 | 97 | 1014.3 |
| 20260510134720 | 55 | 268 | 0.9 | 0.9 | 0.00 | 0.00 | 0.00 | 97 | 1014.3 |
| 20260510134217 | 55 | 237 | 0.0 | 0.0 | 0.00 | 0.00 | 0.00 | 97 | 1014.1 |
| 20260510133713 | 54 | 253 | 0.9 | 0.9 | 0.00 | 0.00 | 0.00 | 97 | 1014.4 |
| 20260510133208 | 55 | 225 | 0.9 | 0.9 | 0.00 | 0.00 | 0.00 | 97 | 1014.3 |
| 20260510132705 | 54 | 129 | 1.7 | 1.7 | 0.00 | 0.00 | 0.00 | 97 | 1014.3 |
| 20260510132203 | 54 | 227 | 0.0 | 0.0 | 0.00 | 0.00 | 0.00 | 97 | 1014.5 |
| 20260510131700 | 54 | 224 | 0.0 | 0.9 | 0.00 | 0.00 | 0.00 | 97 | 1014.5 |
| 20260510131157 | 54 | 209 | 0.0 | 0.9 | 0.00 | 0.00 | 0.00 | 97 | 1014.4 |
| 20260510130653 | 53 | 242 | 2.6 | 2.6 | 0.00 | 0.00 | 0.00 | 97 | 1014.6 |
| 20260510130150 | 53 | 284 | 0.9 | 0.9 | 0.00 | 0.00 | 0.00 | 97 | 1014.4 |
| 20260510125646 | 53 | 253 | 1.7 | 1.7 | 0.00 | 0.00 | 0.00 | 97 | 1014.1 |
| 20260510125143 | 53 | 234 | 0.0 | 0.9 | 0.00 | 0.00 | 0.00 | 97 | 1014.3 |
| 20260510124640 | 53 | 223 | 0.9 | 1.7 | 0.00 | 0.00 | 0.00 | 97 | 1013.9 |
| 20260510124137 | 53 | 169 | 0.9 | 0.9 | 0.00 | 0.00 | 0.00 | 97 | 1013.6 |
| 20260510123632 | 53 | 231 | 0.9 | 1.7 | 0.00 | 0.00 | 0.00 | 97 | 1013.8 |
| 20260510123128 | 53 | 206 | 1.7 | 1.7 | 0.00 | 0.00 | 0.00 | 97 | 1013.8 |
| 20260510122624 | 53 | 230 | 0.0 | 0.0 | 0.00 | 0.00 | 0.00 | 97 | 1013.6 |
| 20260510122121 | 53 | 240 | 0.0 | 0.0 | 0.00 | 0.00 | 0.00 | 97 | 1013.8 |
| 20260510121618 | 52 | 224 | 0.0 | 0.0 | 0.00 | 0.00 | 0.00 | 97 | 1013.8 |
| 20260510121115 | 52 | 236 | 0.9 | 0.9 | 0.00 | 0.00 | 0.00 | 97 | 1013.9 |
| 20260510120613 | 52 | 230 | 0.0 | 0.0 | 0.00 | 0.00 | 0.00 | 97 | 1013.3 |
| 20260510120108 | 52 | 229 | 0.0 | 0.0 | 0.00 | 0.00 | 0.00 | 97 | 1013.2 |
| 20260510115605 | 52 | 216 | 0.9 | 0.9 | 0.00 | 0.00 | 0.00 | 97 | 1013.1 |
| 20260510115102 | 52 | 234 | 0.0 | 0.0 | 0.00 | 0.00 | 0.00 | 97 | 1013.3 |
| 20260510114558 | 51 | 230 | 0.0 | 0.0 | 0.00 | 0.00 | 0.00 | 97 | 1013.2 |
| 20260510114054 | 51 | 217 | 0.0 | 0.0 | 0.00 | 0.00 | 0.00 | 97 | 1013.3 |
| 20260510113549 | 51 | 229 | 0.0 | 0.0 | 0.00 | 0.00 | 0.00 | 97 | 1013.3 |
| 20260510113047 | 51 | 228 | 0.0 | 0.0 | 0.00 | 0.00 | 0.00 | 97 | 1013.5 |
| 20260510112543 | 51 | 219 | 0.0 | 0.0 | 0.00 | 0.00 | 0.00 | 97 | 1013.3 |
| 20260510112040 | 51 | 242 | 0.0 | 0.0 | 0.00 | 0.00 | 0.00 | 97 | 1013.4 |
| 20260510111537 | 51 | 225 | 0.0 | 0.0 | 0.00 | 0.00 | 0.00 | 97 | 1013.4 |
| 20260510111033 | 51 | 239 | 0.0 | 0.0 | 0.00 | 0.00 | 0.00 | 97 | 1013.3 |
| 20260510110529 | 51 | 251 | 0.9 | 0.9 | 0.00 | 0.00 | 0.00 | 97 | 1013.5 |
| 20260510110025 | 50 | 251 | 0.0 | 0.0 | 0.00 | 0.00 | 0.00 | 97 | 1013.1 |
| 20260510105520 | 50 | 244 | 0.9 | 0.9 | 0.00 | 0.00 | 0.00 | 97 | 1013.1 |
| 20260510105016 | 50 | 233 | 0.0 | 0.0 | 0.00 | 0.00 | 0.00 | 97 | 1013.0 |
| 20260510104513 | 50 | 242 | 0.0 | 0.0 | 0.00 | 0.00 | 0.00 | 97 | 1013.0 |
| 20260510104009 | 50 | 238 | 0.0 | 0.0 | 0.00 | 0.00 | 0.00 | 97 | 1012.9 |
| 20260510103506 | 50 | 232 | 0.0 | 0.0 | 0.00 | 0.00 | 0.00 | 97 | 1012.7 |
| 20260510103002 | 49 | 230 | 0.0 | 0.0 | 0.00 | 0.00 | 0.00 | 97 | 1012.7 |
| 20260510102458 | 49 | 234 | 0.0 | 0.0 | 0.00 | 0.00 | 0.00 | 97 | 1012.7 |
| 20260510101954 | 49 | 231 | 0.0 | 0.0 | 0.00 | 0.00 | 0.00 | 97 | 1012.6 |
| 20260510101452 | 49 | 240 | 0.0 | 0.0 | 0.00 | 0.00 | 0.00 | 97 | 1012.6 |
| 20260510100951 | 49 | 237 | 0.0 | 0.0 | 0.00 | 0.00 | 0.00 | 97 | 1012.7 |
| 20260510100446 | 49 | 235 | 0.0 | 0.0 | 0.00 | 0.00 | 0.00 | 97 | 1012.7 |
| 20260510095943 | 49 | 237 | 0.0 | 0.0 | 0.00 | 0.00 | 0.00 | 97 | 1012.5 |
| 20260510095439 | 50 | 230 | 0.0 | 0.0 | 0.00 | 0.00 | 0.00 | 97 | 1012.5 |
| 20260510094938 | 50 | 238 | 0.0 | 0.0 | 0.00 | 0.00 | 0.00 | 97 | 1012.6 |
| 20260510094433 | 50 | 238 | 0.0 | 0.0 | 0.00 | 0.00 | 0.00 | 97 | 1012.6 |
| 20260510093929 | 50 | 229 | 0.0 | 0.0 | 0.00 | 0.00 | 0.00 | 97 | 1012.6 |
| 20260510093424 | 50 | 233 | 0.0 | 0.0 | 0.00 | 0.00 | 0.00 | 97 | 1012.8 |
| 20260510092922 | 50 | 232 | 0.0 | 0.0 | 0.00 | 0.00 | 0.00 | 97 | 1012.7 |
| 20260510092419 | 50 | 233 | 0.0 | 0.0 | 0.00 | 0.00 | 0.00 | 97 | 1012.7 |
| 20260510091918 | 50 | 234 | 0.0 | 0.0 | 0.00 | 0.00 | 0.00 | 97 | 1012.6 |
| 20260510091416 | 50 | 224 | 0.0 | 0.0 | 0.00 | 0.00 | 0.00 | 97 | 1012.8 |
| 20260510090912 | 50 | 237 | 0.0 | 0.0 | 0.00 | 0.00 | 0.00 | 97 | 1012.8 |
| 20260510090409 | 50 | 224 | 0.0 | 0.0 | 0.00 | 0.00 | 0.00 | 97 | 1012.6 |
| 20260510085905 | 50 | 248 | 0.0 | 0.0 | 0.00 | 0.00 | 0.00 | 97 | 1012.9 |
| 20260510085400 | 50 | 223 | 0.0 | 0.0 | 0.00 | 0.00 | 0.00 | 97 | 1013.0 |
| 20260510084855 | 50 | 229 | 0.0 | 0.0 | 0.00 | 0.00 | 0.00 | 97 | 1013.3 |
| 20260510084353 | 50 | 82 | 1.7 | 2.6 | 0.00 | 0.00 | 0.00 | 97 | 1013.1 |
| 20260510083850 | 50 | 218 | 0.0 | 0.0 | 0.00 | 0.00 | 0.00 | 97 | 1013.0 |
| 20260510083346 | 50 | 270 | 0.9 | 1.7 | 0.00 | 0.00 | 0.00 | 97 | 1013.0 |
| 20260510082842 | 50 | 257 | 0.9 | 1.7 | 0.00 | 0.00 | 0.00 | 97 | 1013.4 |
| 20260510082339 | 50 | 198 | 1.7 | 1.7 | 0.00 | 0.00 | 0.00 | 97 | 1012.9 |
| 20260510081838 | 50 | 321 | 2.6 | 2.6 | 0.00 | 0.00 | 0.00 | 97 | 1013.1 |
| 20260510081334 | 50 | 122 | 2.6 | 2.6 | 0.00 | 0.00 | 0.00 | 97 | 1012.9 |
| 20260510080831 | 51 | 327 | 2.6 | 2.6 | 0.00 | 0.00 | 0.00 | 97 | 1012.4 |
| 20260510080325 | 51 | 250 | 0.0 | 0.0 | 0.00 | 0.00 | 0.00 | 97 | 1012.2 |
| 20260510075822 | 51 | 271 | 0.0 | 0.0 | 0.00 | 0.00 | 0.00 | 97 | 1012.2 |
| 20260510075320 | 51 | 235 | 0.0 | 0.0 | 0.00 | 0.00 | 0.00 | 97 | 1012.0 |
| 20260510074816 | 51 | 222 | 0.0 | 0.0 | 0.00 | 0.00 | 0.00 | 97 | 1012.2 |
| 20260510074314 | 51 | 243 | 0.0 | 0.0 | 0.00 | 0.00 | 0.00 | 97 | 1012.0 |
| 20260510073809 | 51 | 243 | 0.0 | 0.0 | 0.00 | 0.00 | 0.00 | 97 | 1012.0 |
| 20260510073306 | 51 | 241 | 0.0 | 0.0 | 0.00 | 0.00 | 0.00 | 97 | 1012.1 |
| 20260510072801 | 51 | 237 | 0.0 | 0.0 | 0.00 | 0.00 | 0.00 | 97 | 1012.1 |
| 20260510072258 | 51 | 238 | 0.0 | 0.0 | 0.00 | 0.00 | 0.00 | 97 | 1011.9 |
| 20260510071754 | 51 | 252 | 0.0 | 0.0 | 0.00 | 0.00 | 0.00 | 97 | 1011.9 |
| 20260510071252 | 50 | 235 | 0.0 | 0.0 | 0.00 | 0.00 | 0.00 | 97 | 1012.0 |
| 20260510070751 | 50 | 235 | 0.0 | 0.0 | 0.00 | 0.00 | 0.00 | 97 | 1012.1 |
| 20260510070247 | 50 | 237 | 0.0 | 0.0 | 0.00 | 0.00 | 0.00 | 97 | 1012.0 |
| 20260510065746 | 50 | 234 | 0.0 | 0.0 | 0.00 | 0.00 | 0.00 | 97 | 1012.1 |
| 20260510065244 | 50 | 257 | 0.0 | 0.0 | 0.00 | 0.00 | 0.00 | 97 | 1012.1 |
| 20260510064740 | 50 | 234 | 0.0 | 0.0 | 0.00 | 0.00 | 0.00 | 97 | 1012.2 |
| 20260510064238 | 50 | 259 | 0.0 | 0.0 | 0.00 | 0.00 | 0.00 | 97 | 1012.0 |
| 20260510063734 | 50 | 267 | 0.0 | 0.9 | 0.00 | 0.00 | 0.00 | 97 | 1012.1 |
| 20260510063230 | 50 | 269 | 0.0 | 0.0 | 0.00 | 0.00 | 0.00 | 97 | 1012.1 |
| 20260510062727 | 50 | 254 | 0.0 | 0.0 | 0.00 | 0.00 | 0.00 | 97 | 1012.0 |
| 20260510062223 | 49 | 246 | 0.0 | 0.0 | 0.00 | 0.00 | 0.00 | 97 | 1011.9 |
| 20260510061718 | 49 | 240 | 0.0 | 0.0 | 0.00 | 0.00 | 0.00 | 97 | 1011.8 |
| 20260510061216 | 49 | 235 | 0.0 | 0.0 | 0.00 | 0.00 | 0.00 | 97 | 1011.9 |
| 20260510060712 | 49 | 240 | 0.0 | 0.0 | 0.00 | 0.00 | 0.00 | 97 | 1011.9 |
| 20260510060209 | 49 | 237 | 0.0 | 0.0 | 0.00 | 0.00 | 0.00 | 97 | 1011.7 |
| 20260510055705 | 49 | 234 | 0.0 | 0.0 | 0.00 | 0.00 | 0.00 | 97 | 1011.9 |
| 20260510055203 | 49 | 237 | 0.0 | 0.0 | 0.00 | 0.00 | 0.00 | 97 | 1012.0 |
| 20260510054659 | 49 | 234 | 0.0 | 0.0 | 0.00 | 0.00 | 0.00 | 97 | 1011.8 |
| 20260510054155 | 48 | 232 | 0.0 | 0.0 | 0.00 | 0.00 | 0.00 | 97 | 1012.0 |
| 20260510053654 | 48 | 234 | 0.0 | 0.0 | 0.00 | 0.00 | 0.00 | 97 | 1012.1 |
| 20260510053151 | 48 | 234 | 0.0 | 0.0 | 0.00 | 0.00 | 0.00 | 97 | 1012.2 |
| 20260510052646 | 48 | 234 | 0.0 | 0.0 | 0.00 | 0.00 | 0.00 | 97 | 1012.0 |
| 20260510052143 | 48 | 234 | 0.0 | 0.0 | 0.00 | 0.00 | 0.00 | 97 | 1012.0 |
| 20260510051639 | 48 | 238 | 0.0 | 0.0 | 0.00 | 0.00 | 0.00 | 97 | 1012.2 |
| 20260510051135 | 48 | 234 | 0.0 | 0.0 | 0.00 | 0.00 | 0.00 | 97 | 1012.0 |
| 20260510050633 | 48 | 239 | 0.0 | 0.0 | 0.00 | 0.00 | 0.00 | 97 | 1012.2 |
| 20260510050130 | 47 | 231 | 0.0 | 0.0 | 0.00 | 0.00 | 0.00 | 97 | 1012.1 |
| 20260510045626 | 47 | 243 | 0.0 | 0.0 | 0.00 | 0.00 | 0.00 | 97 | 1012.2 |
| 20260510045123 | 47 | 237 | 0.0 | 0.0 | 0.00 | 0.00 | 0.00 | 97 | 1012.2 |
| 20260510044619 | 47 | 230 | 0.0 | 0.0 | 0.00 | 0.00 | 0.00 | 97 | 1012.2 |
| 20260510044117 | 47 | 234 | 0.0 | 0.0 | 0.00 | 0.00 | 0.00 | 97 | 1012.3 |
| 20260510043613 | 46 | 235 | 0.0 | 0.0 | 0.00 | 0.00 | 0.00 | 97 | 1012.1 |
| 20260510043108 | 46 | 236 | 0.0 | 0.0 | 0.00 | 0.00 | 0.00 | 97 | 1012.3 |
| 20260510042601 | 46 | 231 | 0.0 | 0.0 | 0.00 | 0.00 | 0.00 | 97 | 1012.2 |
| 20260510042056 | 45 | 235 | 0.0 | 0.0 | 0.00 | 0.00 | 0.00 | 97 | 1012.2 |
| 20260510041554 | 45 | 234 | 0.0 | 0.0 | 0.00 | 0.00 | 0.00 | 97 | 1012.4 |
| 20260510041051 | 45 | 234 | 0.0 | 0.0 | 0.00 | 0.00 | 0.00 | 97 | 1012.5 |
| 20260510040548 | 45 | 232 | 0.0 | 0.0 | 0.00 | 0.00 | 0.00 | 97 | 1012.3 |
| 20260510040044 | 45 | 231 | 0.0 | 0.0 | 0.00 | 0.13 | 0.13 | 97 | 1012.4 |
| 20260510035541 | 45 | 231 | 0.0 | 0.0 | 0.00 | 0.13 | 0.13 | 97 | 1012.4 |
| 20260510035040 | 45 | 228 | 0.0 | 0.0 | 0.00 | 0.13 | 0.13 | 97 | 1012.2 |
| 20260510034538 | 45 | 234 | 0.0 | 0.0 | 0.00 | 0.13 | 0.13 | 97 | 1012.1 |
| 20260510034035 | 45 | 231 | 0.0 | 0.0 | 0.00 | 0.13 | 0.13 | 97 | 1011.9 |
| 20260510033531 | 45 | 231 | 0.0 | 0.0 | 0.00 | 0.13 | 0.13 | 97 | 1012.0 |
| 20260510033030 | 46 | 234 | 0.0 | 0.0 | 0.00 | 0.13 | 0.13 | 97 | 1011.8 |
| 20260510032526 | 46 | 245 | 0.0 | 0.0 | 0.00 | 0.13 | 0.13 | 97 | 1011.8 |
| 20260510032021 | 46 | 232 | 0.0 | 0.0 | 0.00 | 0.13 | 0.13 | 97 | 1012.0 |
| 20260510031516 | 46 | 228 | 0.0 | 0.0 | 0.00 | 0.13 | 0.13 | 97 | 1011.8 |
| 20260510031012 | 46 | 232 | 0.0 | 0.0 | 0.00 | 0.13 | 0.13 | 97 | 1011.8 |
| 20260510030508 | 46 | 235 | 0.0 | 0.0 | 0.00 | 0.13 | 0.13 | 97 | 1011.8 |
| 20260510030005 | 46 | 234 | 0.0 | 0.0 | 0.00 | 0.13 | 0.13 | 97 | 1011.8 |
| 20260510025502 | 46 | 231 | 0.0 | 0.0 | 0.00 | 0.13 | 0.13 | 97 | 1011.8 |
| 20260510025000 | 46 | 234 | 0.0 | 0.0 | 0.00 | 0.13 | 0.13 | 97 | 1011.8 |
| 20260510024456 | 46 | 232 | 0.0 | 0.0 | 0.00 | 0.13 | 0.13 | 97 | 1011.7 |
| 20260510023952 | 47 | 235 | 0.0 | 0.0 | 0.00 | 0.13 | 0.13 | 97 | 1011.8 |
| 20260510023448 | 46 | 233 | 0.0 | 0.0 | 0.00 | 0.13 | 0.13 | 97 | 1011.8 |
| 20260510022945 | 46 | 233 | 0.0 | 0.0 | 0.00 | 0.13 | 0.13 | 97 | 1011.8 |
| 20260510022444 | 47 | 233 | 0.0 | 0.0 | 0.00 | 0.13 | 0.13 | 97 | 1011.9 |
| 20260510021944 | 47 | 234 | 0.0 | 0.0 | 0.00 | 0.13 | 0.13 | 97 | 1011.9 |
| 20260510021442 | 48 | 233 | 0.0 | 0.0 | 0.00 | 0.13 | 0.13 | 97 | 1011.9 |
| 20260510020938 | 48 | 221 | 0.0 | 0.0 | 0.00 | 0.13 | 0.13 | 96 | 1011.9 |
| 20260510020433 | 47 | 228 | 0.0 | 0.0 | 0.00 | 0.13 | 0.13 | 96 | 1011.5 |
| 20260510015929 | 48 | 233 | 0.0 | 0.0 | 0.00 | 0.13 | 0.13 | 96 | 1011.7 |
| 20260510015425 | 48 | 236 | 0.0 | 0.0 | 0.00 | 0.13 | 0.13 | 96 | 1011.9 |
| 20260510014920 | 48 | 238 | 0.0 | 0.0 | 0.00 | 0.13 | 0.13 | 96 | 1011.8 |
| 20260510014418 | 48 | 234 | 0.0 | 0.0 | 0.00 | 0.13 | 0.13 | 96 | 1011.9 |
| 20260510013914 | 48 | 230 | 0.0 | 0.0 | 0.00 | 0.13 | 0.13 | 96 | 1011.7 |
| 20260510013409 | 49 | 229 | 0.0 | 0.0 | 0.00 | 0.13 | 0.13 | 96 | 1011.8 |
| 20260510012904 | 49 | 231 | 0.0 | 0.0 | 0.00 | 0.13 | 0.13 | 96 | 1011.9 |
| 20260510012400 | 49 | 231 | 0.0 | 0.0 | 0.00 | 0.13 | 0.13 | 95 | 1011.7 |
| 20260510011854 | 49 | 234 | 0.0 | 0.0 | 0.00 | 0.13 | 0.13 | 95 | 1011.8 |
| 20260510011350 | 50 | 229 | 0.0 | 0.0 | 0.00 | 0.13 | 0.13 | 95 | 1011.6 |
| 20260510010846 | 50 | 231 | 0.0 | 0.0 | 0.00 | 0.13 | 0.13 | 95 | 1011.9 |
| 20260510010344 | 50 | 234 | 0.0 | 0.0 | 0.00 | 0.13 | 0.13 | 95 | 1011.7 |
| 20260510005840 | 51 | 234 | 0.0 | 0.0 | 0.00 | 0.13 | 0.13 | 95 | 1011.6 |
| 20260510005337 | 51 | 234 | 0.0 | 0.0 | 0.00 | 0.13 | 0.13 | 95 | 1011.4 |
| 20260510004834 | 51 | 238 | 0.0 | 0.0 | 0.00 | 0.13 | 0.13 | 95 | 1011.3 |
| 20260510004332 | 51 | 232 | 0.0 | 0.0 | 0.00 | 0.13 | 0.13 | 94 | 1011.3 |
| 20260510003829 | 52 | 228 | 0.0 | 0.0 | 0.00 | 0.13 | 0.13 | 95 | 1011.3 |
| 20260510003326 | 52 | 228 | 0.0 | 0.0 | 0.00 | 0.13 | 0.13 | 94 | 1011.1 |
| 20260510002825 | 52 | 227 | 0.0 | 0.0 | 0.00 | 0.13 | 0.13 | 94 | 1011.0 |
| 20260510002322 | 52 | 234 | 0.0 | 0.0 | 0.00 | 0.13 | 0.13 | 94 | 1011.2 |
| 20260510001819 | 53 | 230 | 0.0 | 0.0 | 0.00 | 0.13 | 0.13 | 93 | 1011.2 |
| 20260510001317 | 53 | 228 | 0.0 | 0.0 | 0.00 | 0.13 | 0.13 | 93 | 1011.1 |
| 20260510000812 | 53 | 231 | 0.0 | 0.0 | 0.00 | 0.13 | 0.13 | 93 | 1011.1 |
| 20260510000311 | 53 | 232 | 0.0 | 0.0 | 0.00 | 0.13 | 0.13 | 92 | 1011.1 |
| 20260509235807 | 54 | 233 | 0.0 | 0.0 | 0.00 | 0.13 | 0.13 | 92 | 1011.1 |
| 20260509235306 | 55 | 233 | 0.0 | 0.0 | 0.00 | 0.13 | 0.13 | 92 | 1011.3 |
| 20260509234759 | 55 | 235 | 0.0 | 0.0 | 0.00 | 0.13 | 0.13 | 91 | 1011.1 |
| 20260509234256 | 55 | 233 | 0.0 | 0.0 | 0.00 | 0.13 | 0.13 | 91 | 1011.2 |
| 20260509233755 | 56 | 231 | 0.0 | 0.0 | 0.00 | 0.13 | 0.13 | 90 | 1011.2 |
| 20260509233252 | 56 | 231 | 0.0 | 0.0 | 0.00 | 0.13 | 0.13 | 90 | 1011.2 |
| 20260509232748 | 56 | 229 | 0.0 | 0.0 | 0.00 | 0.13 | 0.13 | 90 | 1011.1 |
| 20260509232245 | 57 | 227 | 0.0 | 0.0 | 0.00 | 0.13 | 0.13 | 89 | 1011.0 |
| 20260509231741 | 57 | 229 | 0.0 | 0.0 | 0.00 | 0.13 | 0.13 | 88 | 1010.6 |
| 20260509231238 | 57 | 234 | 0.0 | 0.0 | 0.00 | 0.13 | 0.13 | 88 | 1010.8 |
| 20260509230736 | 58 | 235 | 0.0 | 0.0 | 0.00 | 0.13 | 0.13 | 89 | 1010.9 |
| 20260509230233 | 58 | 232 | 0.0 | 0.0 | 0.00 | 0.13 | 0.13 | 89 | 1010.8 |
| 20260509225728 | 57 | 217 | 0.9 | 0.9 | 0.00 | 0.13 | 0.13 | 89 | 1011.0 |
| 20260509225224 | 57 | 236 | 0.0 | 0.0 | 0.00 | 0.13 | 0.13 | 90 | 1011.1 |
| 20260509224720 | 56 | 224 | 0.0 | 0.9 | 0.00 | 0.13 | 0.13 | 90 | 1011.1 |
| 20260509224217 | 57 | 217 | 1.7 | 1.7 | 0.00 | 0.13 | 0.13 | 90 | 1011.1 |
| 20260509223714 | 57 | 227 | 0.0 | 0.0 | 0.00 | 0.13 | 0.13 | 91 | 1011.1 |
| 20260509223211 | 57 | 229 | 0.0 | 0.0 | 0.00 | 0.13 | 0.13 | 92 | 1011.1 |
| 20260509222708 | 57 | 220 | 0.9 | 1.7 | 0.00 | 0.13 | 0.13 | 91 | 1011.2 |
| 20260509222203 | 57 | 200 | 0.9 | 1.7 | 0.00 | 0.13 | 0.13 | 92 | 1011.1 |
| 20260509221659 | 57 | 156 | 0.9 | 1.7 | 0.00 | 0.13 | 0.13 | 92 | 1011.0 |
| 20260509221155 | 56 | 211 | 0.0 | 0.9 | 0.00 | 0.13 | 0.13 | 93 | 1011.2 |
| 20260509220652 | 56 | 189 | 0.0 | 0.0 | 0.00 | 0.13 | 0.13 | 93 | 1011.1 |
| 20260509220148 | 56 | 234 | 0.0 | 0.0 | 0.00 | 0.13 | 0.13 | 93 | 1011.5 |
| 20260509215644 | 56 | 200 | 0.9 | 1.7 | 0.00 | 0.13 | 0.13 | 93 | 1011.4 |
| 20260509215141 | 56 | 187 | 1.7 | 1.7 | 0.00 | 0.13 | 0.13 | 93 | 1011.5 |
| 20260509214638 | 56 | 231 | 0.0 | 0.0 | 0.00 | 0.13 | 0.13 | 93 | 1011.4 |
| 20260509214135 | 56 | 177 | 0.0 | 0.9 | 0.00 | 0.13 | 0.13 | 93 | 1011.5 |
| 20260509213631 | 56 | 232 | 0.0 | 0.0 | 0.00 | 0.13 | 0.13 | 94 | 1011.4 |
| 20260509213127 | 56 | 230 | 0.0 | 0.0 | 0.07 | 0.13 | 0.13 | 94 | 1011.4 |
| 20260509212625 | 56 | 224 | 0.0 | 0.0 | 0.12 | 0.13 | 0.13 | 94 | 1011.3 |
| 20260509212122 | 55 | 215 | 0.0 | 0.0 | 0.17 | 0.11 | 0.11 | 93 | 1011.3 |
| 20260509211617 | 55 | 228 | 0.0 | 0.9 | 0.19 | 0.11 | 0.11 | 93 | 1011.5 |
| 20260509211114 | 55 | 235 | 0.0 | 0.0 | 0.07 | 0.09 | 0.09 | 93 | 1011.5 |
| 20260509210611 | 55 | 235 | 0.0 | 0.0 | 0.00 | 0.07 | 0.07 | 93 | 1011.5 |
| 20260509210108 | 55 | 219 | 0.0 | 0.0 | 0.00 | 0.07 | 0.07 | 92 | 1011.3 |
| 20260509205602 | 55 | 236 | 0.0 | 0.0 | 0.05 | 0.07 | 0.07 | 92 | 1011.1 |
| 20260509205057 | 56 | 217 | 0.0 | 0.0 | 0.09 | 0.07 | 0.07 | 91 | 1011.0 |
| 20260509204554 | 56 | 239 | 0.0 | 0.0 | 0.12 | 0.07 | 0.07 | 91 | 1011.2 |
| 20260509204051 | 55 | 256 | 0.0 | 0.0 | 0.12 | 0.06 | 0.06 | 91 | 1011.5 |
| 20260509203546 | 56 | 298 | 0.9 | 0.9 | 0.05 | 0.05 | 0.05 | 90 | 1011.2 |
| 20260509203045 | 56 | 259 | 0.9 | 1.7 | 0.00 | 0.04 | 0.04 | 90 | 1011.4 |
| 20260509202539 | 56 | 324 | 2.6 | 2.6 | 0.00 | 0.04 | 0.04 | 90 | 1011.3 |
| 20260509202035 | 56 | 359 | 1.7 | 1.7 | 0.07 | 0.04 | 0.04 | 90 | 1011.3 |
| 20260509201530 | 56 | 298 | 0.9 | 0.9 | 0.00 | 0.03 | 0.03 | 90 | 1011.3 |
| 20260509201028 | 56 | 270 | 0.0 | 0.9 | 0.00 | 0.03 | 0.03 | 90 | 1011.3 |
| 20260509200527 | 57 | 313 | 0.9 | 0.9 | 0.00 | 0.03 | 0.03 | 90 | 1011.5 |
| 20260509200024 | 57 | 278 | 1.7 | 1.7 | 0.00 | 0.03 | 0.03 | 90 | 1011.3 |
| 20260509195520 | 57 | 326 | 2.6 | 2.6 | 0.00 | 0.03 | 0.03 | 91 | 1011.6 |
| 20260509195019 | 57 | 241 | 0.9 | 0.9 | 0.00 | 0.03 | 0.03 | 91 | 1011.7 |
| 20260509194514 | 56 | 245 | 0.0 | 0.0 | 0.00 | 0.03 | 0.03 | 91 | 1012.0 |
| 20260509194012 | 56 | 251 | 0.0 | 0.0 | 0.00 | 0.03 | 0.03 | 91 | 1011.9 |
| 20260509193507 | 56 | 239 | 0.0 | 0.0 | 0.05 | 0.03 | 0.03 | 91 | 1011.7 |
| 20260509193004 | 56 | 236 | 0.0 | 0.0 | 0.05 | 0.03 | 0.03 | 90 | 1012.0 |
| 20260509192500 | 56 | 263 | 2.6 | 2.6 | 0.00 | 0.02 | 0.02 | 90 | 1012.1 |
| 20260509191955 | 56 | 342 | 1.7 | 1.7 | 0.07 | 0.02 | 0.02 | 90 | 1012.1 |
| 20260509191450 | 56 | 238 | 0.9 | 0.9 | 0.07 | 0.02 | 0.02 | 89 | 1012.2 |
| 20260509190946 | 56 | 345 | 4.3 | 4.3 | 0.00 | 0.01 | 0.01 | 88 | 1012.3 |
| 20260509190443 | 57 | 327 | 3.5 | 4.3 | 0.00 | 0.01 | 0.01 | 87 | 1012.1 |
| 20260509185941 | 57 | 257 | 4.3 | 4.3 | 0.00 | 0.01 | 0.01 | 86 | 1012.2 |
| 20260509185438 | 57 | 208 | 3.5 | 4.3 | 0.00 | 0.01 | 0.01 | 84 | 1012.1 |
| 20260509184935 | 58 | 313 | 4.3 | 6.1 | 0.00 | 0.01 | 0.01 | 84 | 1012.3 |
| 20260509184433 | 58 | 326 | 6.1 | 8.7 | 0.00 | 0.01 | 0.01 | 83 | 1012.2 |
| 20260509183929 | 58 | 287 | 1.7 | 1.7 | 0.00 | 0.01 | 0.01 | 83 | 1012.1 |
| 20260509183423 | 59 | 237 | 0.9 | 1.7 | 0.00 | 0.01 | 0.01 | 83 | 1012.1 |
| 20260509182920 | 59 | 262 | 1.7 | 1.7 | 0.00 | 0.01 | 0.01 | 82 | 1012.0 |
| 20260509182416 | 58 | 231 | 1.7 | 2.6 | 0.00 | 0.01 | 0.01 | 82 | 1011.8 |
| 20260509181914 | 59 | 300 | 2.6 | 2.6 | 0.00 | 0.01 | 0.01 | 82 | 1011.6 |
| 20260509181412 | 58 | 264 | 0.9 | 0.9 | 0.00 | 0.01 | 0.01 | 82 | 1012.0 |
| 20260509180909 | 58 | 33 | 0.9 | 1.7 | 0.00 | 0.01 | 0.01 | 83 | 1011.9 |
| 20260509180404 | 59 | 258 | 1.7 | 1.7 | 0.05 | 0.01 | 0.01 | 84 | 1011.7 |